Time;durP1;ratioP1;P1;durP2;ratioP2;P2;SDS_P1;SDS_P2;PMS_P1;PMS_P2;Temp;Humidity;BMP_temperature;BMP_pressure;BME280_temperature;BME280_humidity;BME280_pressure;Samples;Min_cycle;Max_cycle;Signal;HPM_P1;HPM_P2
2021/05/24 00:02:10;;;;;;;9.38;3.88;;;;;;;11.70;91.98;100898.06;5061925;28;20056;-73
2021/05/24 00:04:35;;;;;;;7.30;3.92;;;;;;;11.69;92.33;100899.22;5057668;28;20040;-73
2021/05/24 00:07:01;;;;;;;6.70;3.90;;;;;;;11.82;92.10;100900.63;5045852;28;20036;-73
2021/05/24 00:09:27;;;;;;;7.00;3.83;;;;;;;11.93;91.14;100901.59;5065345;28;20115;-73
2021/05/24 00:11:53;;;;;;;6.38;4.05;;;;;;;11.73;91.77;100900.84;5070534;28;20560;-73
2021/05/24 00:14:20;;;;;;;4.97;3.65;;;;;;;11.75;91.97;100892.38;5059789;28;20028;-72
2021/05/24 00:16:47;;;;;;;6.60;3.78;;;;;;;11.79;91.12;100893.22;5061510;28;20126;-72
2021/05/24 00:19:12;;;;;;;5.70;3.60;;;;;;;11.84;91.54;100890.25;5063029;28;20040;-72
2021/05/24 00:21:38;;;;;;;8.00;3.78;;;;;;;12.05;90.06;100898.75;5078437;28;20036;-72
2021/05/24 00:24:04;;;;;;;7.28;4.07;;;;;;;11.98;89.79;100889.75;5062341;28;20512;-72
2021/05/24 00:26:30;;;;;;;7.40;3.63;;;;;;;11.94;90.67;100883.50;5075058;28;20047;-73
2021/05/24 00:28:55;;;;;;;6.60;3.80;;;;;;;11.79;90.90;100891.31;5082145;28;20036;-72
2021/05/24 00:31:23;;;;;;;5.57;4.00;;;;;;;11.81;90.79;100882.09;5076914;28;20124;-73
2021/05/24 00:33:48;;;;;;;5.15;3.58;;;;;;;11.88;91.37;100874.91;5083415;28;20154;-73
2021/05/24 00:36:14;;;;;;;4.80;3.53;;;;;;;11.77;91.39;100873.91;5066596;28;20117;-72
2021/05/24 00:38:39;;;;;;;5.85;3.65;;;;;;;11.61;91.98;100878.59;5051842;28;20035;-72
2021/05/24 00:41:05;;;;;;;5.80;3.75;;;;;;;11.65;91.96;100865.97;5072399;28;20102;-73
2021/05/24 00:43:31;;;;;;;5.30;3.47;;;;;;;11.73;92.63;100863.06;5080079;28;20385;-73
2021/05/24 00:45:56;;;;;;;5.38;3.83;;;;;;;11.85;91.51;100851.31;5066485;28;20085;-73
2021/05/24 00:48:22;;;;;;;6.22;3.83;;;;;;;12.04;89.62;100848.59;5072455;28;20226;-73
2021/05/24 00:50:48;;;;;;;5.82;3.78;;;;;;;11.84;89.59;100852.47;5073051;28;20534;-73
2021/05/24 00:53:13;;;;;;;6.95;3.53;;;;;;;11.89;89.95;100841.38;5067194;28;20033;-73
2021/05/24 00:55:39;;;;;;;3.85;3.30;;;;;;;11.74;90.63;100842.28;5085329;28;20036;-73
2021/05/24 00:58:05;;;;;;;4.35;3.45;;;;;;;11.91;90.25;100847.19;5071938;28;20054;-73
2021/05/24 01:00:40;;;;;;;4.30;3.50;;;;;;;11.95;89.45;100831.84;5072928;28;20033;-73
2021/05/24 01:03:07;;;;;;;4.93;3.40;;;;;;;11.72;89.73;100839.16;5055333;28;20037;-72
2021/05/24 01:05:33;;;;;;;4.90;3.38;;;;;;;11.94;89.11;100829.53;5066877;28;20967;-73
2021/05/24 01:07:59;;;;;;;9.27;3.42;;;;;;;12.06;89.13;100821.25;5081275;28;20028;-73
2021/05/24 01:10:25;;;;;;;5.35;3.33;;;;;;;11.95;89.25;100825.66;5074573;28;20557;-73
2021/05/24 01:12:50;;;;;;;3.70;3.03;;;;;;;11.85;88.97;100816.25;5076740;28;20131;-73
2021/05/24 01:15:16;;;;;;;3.90;3.20;;;;;;;11.83;89.05;100818.53;5075828;28;20040;-73
2021/05/24 01:17:43;;;;;;;4.95;3.22;;;;;;;12.01;86.92;100816.94;5068939;28;20108;-73
2021/05/24 01:20:29;;;;;;;6.65;3.40;;;;;;;12.04;87.52;100808.09;5080877;28;20047;-73
2021/05/24 01:23:07;;;;;;;5.22;3.58;;;;;;;11.84;88.60;100817.41;5022225;28;20497;-73
2021/05/24 01:25:41;;;;;;;3.50;2.90;;;;;;;11.90;88.39;100813.28;5030755;28;20108;-73
2021/05/24 01:28:09;;;;;;;6.57;3.05;;;;;;;11.80;90.05;100803.06;5026712;28;20081;-73
2021/05/24 01:30:36;;;;;;;6.63;3.30;;;;;;;11.79;88.91;100802.28;5043842;28;20044;-73
2021/05/24 01:33:26;;;;;;;3.90;3.17;;;;;;;11.90;89.01;100812.47;5031600;28;20049;-73
2021/05/24 01:35:52;;;;;;;4.95;3.17;;;;;;;11.89;87.77;100800.13;5025687;28;20123;-73
2021/05/24 01:38:18;;;;;;;8.02;3.42;;;;;;;11.92;88.98;100797.50;5030891;28;20460;-73
2021/05/24 01:40:47;;;;;;;4.95;3.28;;;;;;;12.11;85.74;100800.13;5033127;28;20049;-73
2021/05/24 01:43:13;;;;;;;5.72;2.92;;;;;;;11.88;86.54;100793.16;5026774;28;20029;-74
2021/05/24 01:45:39;;;;;;;5.20;3.60;;;;;;;11.84;87.08;100797.72;5030641;28;20037;-73
2021/05/24 01:48:06;;;;;;;4.50;3.20;;;;;;;11.91;86.56;100793.22;5023973;28;20062;-73
2021/05/24 01:50:31;;;;;;;6.43;3.25;;;;;;;11.80;86.20;100792.28;5016474;28;20029;-74
2021/05/24 01:52:57;;;;;;;3.45;2.83;;;;;;;11.90;85.80;100785.50;5030202;28;20446;-73
2021/05/24 01:55:22;;;;;;;7.10;3.17;;;;;;;11.90;85.80;100778.19;5028845;28;20107;-73
2021/05/24 01:57:48;;;;;;;6.93;3.03;;;;;;;11.85;87.17;100778.47;5014127;28;20109;-73
2021/05/24 02:00:17;;;;;;;3.47;3.10;;;;;;;11.84;87.42;100782.31;5057434;28;20056;-73
2021/05/24 02:02:44;;;;;;;4.65;3.00;;;;;;;11.71;86.94;100787.09;5062822;28;20400;-73
2021/05/24 02:05:11;;;;;;;4.57;3.15;;;;;;;11.68;85.70;100782.44;5072835;28;20024;-73
2021/05/24 02:07:39;;;;;;;6.50;3.45;;;;;;;11.60;88.52;100774.53;5054921;28;20051;-73
2021/05/24 02:10:09;;;;;;;7.20;3.30;;;;;;;11.73;87.00;100775.94;5073352;28;20033;-73
2021/05/24 02:12:35;;;;;;;4.80;2.90;;;;;;;11.69;86.85;100775.88;5072619;28;20442;-73
2021/05/24 02:15:01;;;;;;;7.97;2.90;;;;;;;11.63;86.73;100777.28;5072476;28;20103;-73
2021/05/24 02:17:27;;;;;;;9.60;3.30;;;;;;;11.68;86.65;100778.94;5072705;28;20031;-73
2021/05/24 02:19:53;;;;;;;5.35;3.55;;;;;;;11.59;84.60;100778.38;5072609;28;20492;-73
2021/05/24 02:22:19;;;;;;;8.25;3.30;;;;;;;11.68;85.51;100770.84;5072073;28;20120;-73
2021/05/24 02:24:45;;;;;;;7.38;3.50;;;;;;;11.67;85.97;100764.69;5037908;28;20435;-72
2021/05/24 02:27:10;;;;;;;6.68;2.80;;;;;;;11.57;85.63;100773.34;5070992;28;20048;-73
2021/05/24 02:29:37;;;;;;;13.75;3.13;;;;;;;11.46;84.30;100766.16;5054606;28;20028;-73
2021/05/24 02:32:04;;;;;;;5.15;2.40;;;;;;;11.38;84.76;100759.88;5072873;28;20039;-72
2021/05/24 02:34:30;;;;;;;5.55;2.80;;;;;;;11.65;84.70;100768.84;5068137;28;20041;-73
2021/05/24 02:36:56;;;;;;;5.57;2.30;;;;;;;11.27;84.55;100760.81;5068750;28;20132;-72
2021/05/24 02:39:22;;;;;;;4.93;2.83;;;;;;;11.46;84.60;100758.88;5053978;28;20029;-72
2021/05/24 02:41:48;;;;;;;4.35;2.50;;;;;;;11.64;83.89;100756.50;5052646;28;20040;-73
2021/05/24 02:44:13;;;;;;;5.25;2.80;;;;;;;11.81;82.20;100747.94;5052177;28;20036;-73
2021/05/24 02:46:39;;;;;;;2.60;2.40;;;;;;;11.67;82.18;100759.28;5071319;28;20025;-73
2021/05/24 02:49:06;;;;;;;7.63;2.78;;;;;;;11.61;82.28;100751.81;5066756;28;20029;-72
2021/05/24 02:51:33;;;;;;;6.57;2.97;;;;;;;11.79;82.25;100742.13;5041822;28;20119;-73
2021/05/24 02:53:59;;;;;;;6.32;2.70;;;;;;;11.91;81.88;100747.34;5070347;28;20024;-73
2021/05/24 02:56:25;;;;;;;3.63;2.60;;;;;;;11.65;81.48;100739.19;5066795;23;20040;-71
2021/05/24 02:58:50;;;;;;;6.32;2.65;;;;;;;11.69;82.92;100745.47;5052744;28;20079;-71
2021/05/24 03:01:16;;;;;;;5.20;2.30;;;;;;;11.88;80.50;100745.38;5044706;28;20029;-71
2021/05/24 03:03:42;;;;;;;6.93;2.78;;;;;;;11.71;81.01;100746.63;5050031;28;20032;-71
2021/05/24 03:06:08;;;;;;;2.42;1.98;;;;;;;11.84;81.23;100749.94;5049372;28;20037;-71
2021/05/24 03:08:33;;;;;;;6.68;2.25;;;;;;;12.01;79.67;100756.75;5037567;28;20037;-71
2021/05/24 03:10:59;;;;;;;4.53;2.40;;;;;;;11.86;80.22;100744.19;5050300;28;20488;-71
2021/05/24 03:13:26;;;;;;;3.67;2.42;;;;;;;11.91;79.96;100749.25;5047415;28;20043;-71
2021/05/24 03:15:52;;;;;;;3.95;2.30;;;;;;;12.05;79.02;100747.59;5044093;28;20017;-72
2021/05/24 03:18:18;;;;;;;5.68;2.22;;;;;;;12.03;79.67;100746.38;5045129;28;20086;-71
2021/05/24 03:20:44;;;;;;;6.95;2.17;;;;;;;11.88;79.56;100744.59;5048695;28;20037;-71
2021/05/24 03:23:09;;;;;;;6.97;2.50;;;;;;;11.75;81.41;100744.78;5050229;28;20028;-71
2021/05/24 03:25:35;;;;;;;2.65;2.20;;;;;;;11.83;80.95;100753.75;5050062;28;20028;-71
2021/05/24 03:28:00;;;;;;;6.57;2.30;;;;;;;11.76;81.05;100757.16;5040013;28;20033;-72
2021/05/24 03:30:26;;;;;;;6.53;2.20;;;;;;;11.77;80.31;100747.09;5047254;28;20151;-71
2021/05/24 03:32:51;;;;;;;4.90;2.17;;;;;;;11.78;81.89;100749.47;5049435;28;20082;-71
2021/05/24 03:35:17;;;;;;;2.58;2.25;;;;;;;11.90;81.42;100753.13;5040896;28;20541;-72
2021/05/24 03:37:43;;;;;;;5.40;2.58;;;;;;;11.78;83.06;100745.97;5048293;28;20029;-71
2021/05/24 03:40:11;;;;;;;4.55;2.35;;;;;;;11.55;81.19;100748.66;5050307;28;20458;-71
2021/05/24 03:42:38;;;;;;;6.53;2.50;;;;;;;11.49;81.63;100760.09;5049889;28;20600;-71
2021/05/24 03:45:06;;;;;;;6.75;3.53;;;;;;;11.75;81.98;100752.09;5039047;28;20069;-71
2021/05/24 03:47:32;;;;;;;7.20;2.67;;;;;;;11.83;81.35;100758.41;5042556;28;20055;-71
2021/05/24 03:49:57;;;;;;;5.45;2.92;;;;;;;11.88;80.88;100750.78;5044707;28;20065;-71
2021/05/24 03:52:23;;;;;;;3.58;3.17;;;;;;;11.99;80.25;100742.84;5049548;28;20040;-71
2021/05/24 03:54:48;;;;;;;7.10;3.20;;;;;;;12.05;79.83;100749.50;5042394;28;20041;-71
2021/05/24 03:57:14;;;;;;;7.28;3.67;;;;;;;11.94;79.98;100740.47;5043835;28;20036;-71
2021/05/24 03:59:40;;;;;;;5.93;3.35;;;;;;;11.82;81.34;100748.75;5038706;28;20025;-71
2021/05/24 04:02:06;;;;;;;6.75;3.33;;;;;;;11.70;82.47;100742.38;5038273;28;20112;-71
2021/05/24 04:04:31;;;;;;;8.25;2.95;;;;;;;11.58;82.42;100742.53;5044101;28;20025;-71
2021/05/24 04:06:59;;;;;;;5.70;2.97;;;;;;;11.75;82.25;100747.47;5041452;28;20025;-71
2021/05/24 04:09:26;;;;;;;6.57;3.05;;;;;;;11.72;81.60;100736.63;5048022;28;20025;-71
2021/05/24 04:11:51;;;;;;;4.80;2.90;;;;;;;11.65;81.99;100729.19;5050263;28;20029;-71
2021/05/24 04:14:17;;;;;;;5.22;3.20;;;;;;;11.71;81.95;100740.47;5048839;28;20461;-71
2021/05/24 04:16:44;;;;;;;4.13;3.40;;;;;;;11.55;83.01;100737.88;5034939;28;20029;-72
2021/05/24 04:19:11;;;;;;;6.53;3.22;;;;;;;11.67;83.61;100737.69;5044916;28;20029;-71
2021/05/24 04:21:38;;;;;;;5.80;3.00;;;;;;;11.61;83.50;100738.34;5050653;28;20068;-71
2021/05/24 04:24:05;;;;;;;7.03;3.03;;;;;;;11.62;83.46;100732.59;5047080;28;20020;-70
2021/05/24 04:26:31;;;;;;;6.55;3.05;;;;;;;11.92;82.38;100727.34;5039924;28;20565;-71
2021/05/24 04:28:57;;;;;;;5.20;2.72;;;;;;;11.88;82.28;100731.09;5048161;28;20108;-71
2021/05/24 04:31:23;;;;;;;4.28;2.90;;;;;;;11.96;82.54;100730.09;5038000;28;20136;-71
2021/05/24 04:33:49;;;;;;;6.75;3.25;;;;;;;11.82;81.52;100719.84;5043492;28;20017;-71
2021/05/24 04:36:15;;;;;;;3.15;2.60;;;;;;;11.71;82.84;100724.28;5042522;28;20037;-70
2021/05/24 04:38:40;;;;;;;3.97;2.70;;;;;;;11.79;82.30;100712.44;5044006;28;20028;-71
2021/05/24 04:41:06;;;;;;;8.85;2.90;;;;;;;11.86;83.20;100723.38;5031194;28;20110;-71
2021/05/24 04:43:33;;;;;;;6.25;3.10;;;;;;;11.62;82.89;100727.19;5049114;28;20047;-71
2021/05/24 04:45:59;;;;;;;5.93;2.75;;;;;;;11.40;84.29;100730.63;5034718;28;20025;-71
2021/05/24 04:48:24;;;;;;;4.10;2.63;;;;;;;11.67;84.12;100713.41;5033475;28;20028;-72
2021/05/24 04:50:50;;;;;;;5.65;3.28;;;;;;;11.50;84.30;100726.56;5035755;28;20138;-71
2021/05/24 04:53:16;;;;;;;6.75;2.58;;;;;;;11.54;84.85;100714.72;5032448;28;20025;-71
2021/05/24 04:55:41;;;;;;;5.22;2.40;;;;;;;11.69;83.57;100719.22;5042118;28;20503;-71
2021/05/24 04:58:07;;;;;;;4.07;2.50;;;;;;;11.91;82.90;100714.97;5032465;28;20071;-72
2021/05/24 05:00:33;;;;;;;2.85;2.40;;;;;;;11.93;81.94;100709.19;5035499;28;20676;-71
2021/05/24 05:03:00;;;;;;;5.88;2.28;;;;;;;11.99;81.27;100719.34;5034617;28;20048;-71
2021/05/24 05:05:25;;;;;;;3.65;2.28;;;;;;;11.91;81.63;100725.75;5035851;28;20515;-72
2021/05/24 05:07:51;;;;;;;4.97;1.90;;;;;;;12.17;82.46;100731.19;5037481;28;20025;-72
2021/05/24 05:10:17;;;;;;;4.28;2.38;;;;;;;12.51;79.64;100710.44;5030396;28;20400;-71
2021/05/24 05:12:43;;;;;;;3.47;2.13;;;;;;;12.70;79.22;100716.50;5030264;28;22083;-72
2021/05/24 05:15:09;;;;;;;3.08;2.22;;;;;;;13.27;75.79;100703.66;5038410;28;20073;-72
2021/05/24 05:17:34;;;;;;;5.60;1.95;;;;;;;13.44;75.01;100703.03;5033955;28;20037;-72
2021/05/24 05:20:00;;;;;;;2.88;2.10;;;;;;;13.90;74.87;100711.56;5032111;28;20381;-72
2021/05/24 05:22:26;;;;;;;3.20;1.70;;;;;;;14.43;71.37;100710.78;5036931;28;20046;-72
2021/05/24 05:24:51;;;;;;;4.22;1.52;;;;;;;14.10;72.61;100707.44;5034486;28;20033;-71
2021/05/24 05:27:17;;;;;;;3.35;1.77;;;;;;;14.74;70.19;100711.31;5033248;28;20029;-72
2021/05/24 05:29:42;;;;;;;2.88;1.55;;;;;;;14.41;70.67;100699.56;5041926;28;20039;-72
2021/05/24 05:32:08;;;;;;;4.43;1.42;;;;;;;14.73;69.26;100693.50;5045022;28;20048;-72
2021/05/24 05:34:34;;;;;;;2.10;1.50;;;;;;;14.52;69.15;100698.84;5035760;28;20035;-72
2021/05/24 05:36:59;;;;;;;2.83;1.30;;;;;;;15.06;68.92;100701.38;5037009;28;20052;-72
2021/05/24 05:39:25;;;;;;;4.50;1.60;;;;;;;15.44;67.22;100689.84;5037699;28;20037;-71
2021/05/24 05:41:51;;;;;;;2.72;1.50;;;;;;;15.11;67.42;100692.84;5039229;28;20469;-71
2021/05/24 05:44:16;;;;;;;11.00;1.60;;;;;;;15.33;66.31;100697.13;5040030;28;20076;-71
2021/05/24 05:46:42;;;;;;;2.72;1.55;;;;;;;15.35;67.10;100690.19;5031493;28;20716;-72
2021/05/24 05:49:07;;;;;;;3.42;1.52;;;;;;;14.59;70.20;100677.16;5036049;28;20040;-72
2021/05/24 05:51:33;;;;;;;1.60;1.35;;;;;;;14.75;70.30;100685.78;5032392;28;20029;-70
2021/05/24 05:53:58;;;;;;;1.33;1.20;;;;;;;14.77;69.99;100681.50;5036678;28;20075;-71
2021/05/24 05:56:25;;;;;;;1.67;1.58;;;;;;;14.44;70.60;100684.44;5040279;28;20684;-71
2021/05/24 05:59:11;;;;;;;1.70;1.30;;;;;;;14.33;71.90;100697.16;5039799;28;20389;-71
2021/05/24 06:01:37;;;;;;;2.70;1.50;;;;;;;14.48;70.41;100694.16;5056741;28;20047;-71
2021/05/24 06:04:03;;;;;;;2.03;1.48;;;;;;;14.78;70.83;100685.00;5056983;28;20296;-71
2021/05/24 06:06:28;;;;;;;4.10;1.50;;;;;;;14.61;71.37;100691.13;5053843;28;20048;-72
2021/05/24 06:08:53;;;;;;;3.40;1.20;;;;;;;14.68;71.67;100683.00;5055090;28;20048;-71
2021/05/24 06:11:20;;;;;;;1.70;1.38;;;;;;;15.31;69.43;100694.06;5066217;28;20036;-71
2021/05/24 06:13:45;;;;;;;1.85;1.42;;;;;;;15.14;70.12;100692.06;5065300;28;20236;-71
2021/05/24 06:16:11;;;;;;;3.67;1.40;;;;;;;15.51;67.64;100692.56;5068297;28;20040;-71
2021/05/24 06:18:36;;;;;;;1.75;1.30;;;;;;;15.61;68.30;100697.22;5061097;28;20409;-71
2021/05/24 06:21:02;;;;;;;4.10;1.30;;;;;;;15.67;67.69;100687.53;5064622;28;20082;-74
2021/05/24 06:23:28;;;;;;;2.80;1.92;;;;;;;16.06;66.44;100682.06;5068286;28;20048;-74
2021/05/24 06:25:53;;;;;;;3.83;1.48;;;;;;;15.91;65.33;100675.09;5061163;28;20496;-74
2021/05/24 06:28:19;;;;;;;2.08;1.20;;;;;;;15.49;67.94;100673.16;5059363;28;20523;-73
2021/05/24 06:30:44;;;;;;;4.90;1.30;;;;;;;15.96;67.39;100666.56;5063495;28;20028;-72
2021/05/24 06:33:10;;;;;;;4.53;1.00;;;;;;;16.36;65.39;100668.78;5049181;28;20059;-73
2021/05/24 06:35:36;;;;;;;1.05;0.98;;;;;;;16.71;65.10;100668.69;5063096;28;20717;-73
2021/05/24 06:38:01;;;;;;;3.53;1.20;;;;;;;16.03;64.97;100671.97;5057922;28;20037;-72
2021/05/24 06:40:27;;;;;;;3.28;1.35;;;;;;;16.14;65.99;100670.78;5050186;28;20029;-73
2021/05/24 06:42:53;;;;;;;3.90;1.10;;;;;;;16.67;66.82;100688.91;5049664;28;20420;-72
2021/05/24 06:45:19;;;;;;;5.70;1.45;;;;;;;16.87;63.61;100681.81;5051045;28;20040;-73
2021/05/24 06:47:46;;;;;;;2.38;1.25;;;;;;;16.86;62.98;100672.13;5047249;28;20621;-73
2021/05/24 06:50:13;;;;;;;2.78;1.20;;;;;;;16.67;64.50;100675.31;5050950;28;20036;-73
2021/05/24 06:52:39;;;;;;;4.22;1.25;;;;;;;16.83;63.58;100659.31;5049048;28;20037;-73
2021/05/24 06:55:05;;;;;;;1.90;1.15;;;;;;;16.64;65.38;100671.44;5050670;28;20041;-72
2021/05/24 06:57:30;;;;;;;4.13;1.02;;;;;;;16.34;64.94;100654.06;5048425;28;20055;-73
2021/05/24 06:59:56;;;;;;;1.38;0.98;;;;;;;16.65;65.20;100653.16;5052561;28;20033;-73
2021/05/24 07:02:22;;;;;;;2.15;1.20;;;;;;;17.03;64.99;100663.84;5053030;28;20047;-73
2021/05/24 07:04:47;;;;;;;2.42;1.15;;;;;;;17.27;64.20;100656.69;5049203;28;20025;-73
2021/05/24 07:07:13;;;;;;;2.92;0.90;;;;;;;17.63;63.14;100646.34;5051823;28;20083;-73
2021/05/24 07:09:38;;;;;;;1.50;0.90;;;;;;;17.65;61.92;100647.47;5048033;28;20037;-73
2021/05/24 07:12:08;;;;;;;3.47;0.90;;;;;;;17.68;61.02;100657.59;5045998;28;20055;-73
2021/05/24 07:14:33;;;;;;;1.00;0.77;;;;;;;17.55;63.11;100644.84;5039781;28;20699;-73
2021/05/24 07:16:59;;;;;;;2.75;0.85;;;;;;;17.85;62.38;100644.97;5032381;28;20029;-73
2021/05/24 07:19:25;;;;;;;3.60;1.00;;;;;;;17.49;61.16;100636.34;5028555;28;20039;-73
2021/05/24 07:21:51;;;;;;;2.03;0.70;;;;;;;18.12;59.18;100634.94;5038929;28;20041;-73
2021/05/24 07:24:17;;;;;;;2.08;1.10;;;;;;;18.11;60.55;100619.00;5033338;28;20156;-73
2021/05/24 07:26:42;;;;;;;2.67;1.00;;;;;;;18.40;59.30;100639.31;5032911;28;20455;-73
2021/05/24 07:29:08;;;;;;;2.45;1.00;;;;;;;18.31;58.05;100625.41;5033840;28;20049;-73
2021/05/24 07:31:33;;;;;;;3.03;0.77;;;;;;;18.35;59.34;100621.44;5035359;28;20033;-73
2021/05/24 07:33:59;;;;;;;0.73;0.55;;;;;;;18.19;57.88;100623.22;5032273;28;20021;-73
2021/05/24 07:36:24;;;;;;;2.22;0.80;;;;;;;18.64;58.65;100619.19;5033410;28;20064;-73
2021/05/24 07:38:49;;;;;;;0.88;0.60;;;;;;;18.76;59.35;100613.16;5036221;28;20070;-73
2021/05/24 07:41:15;;;;;;;2.67;0.77;;;;;;;18.84;58.49;100620.06;5044558;28;20025;-73
2021/05/24 07:43:41;;;;;;;3.38;0.80;;;;;;;18.73;58.16;100620.22;5036119;28;20116;-73
2021/05/24 07:46:07;;;;;;;3.28;0.90;;;;;;;18.93;57.10;100620.31;5039043;28;20120;-74
2021/05/24 07:48:32;;;;;;;1.98;0.70;;;;;;;19.36;56.44;100623.97;5046168;28;20473;-73
2021/05/24 07:51:00;;;;;;;2.08;0.65;;;;;;;19.16;58.72;100614.94;5031994;28;20140;-72
2021/05/24 07:53:26;;;;;;;1.27;0.57;;;;;;;19.39;56.46;100623.16;5043605;28;20041;-73
2021/05/24 07:55:51;;;;;;;1.27;0.63;;;;;;;19.76;55.83;100614.69;5041084;28;20049;-73
2021/05/24 07:58:17;;;;;;;1.55;0.55;;;;;;;19.75;55.39;100617.84;5035400;28;20113;-73
2021/05/24 08:00:42;;;;;;;2.58;0.60;;;;;;;20.22;54.00;100613.88;5027091;28;20499;-73
2021/05/24 08:03:08;;;;;;;0.80;0.50;;;;;;;20.52;53.19;100615.59;5037337;28;20040;-73
2021/05/24 08:05:33;;;;;;;1.33;0.50;;;;;;;20.02;54.32;100609.53;5033676;28;20041;-73
2021/05/24 08:07:59;;;;;;;1.38;0.70;;;;;;;19.71;54.36;100622.63;5047833;28;20035;-73
2021/05/24 08:10:24;;;;;;;2.40;0.80;;;;;;;20.09;54.08;100606.69;5042819;28;20037;-73
2021/05/24 08:12:50;;;;;;;1.52;0.80;;;;;;;20.74;53.49;100610.44;5049579;28;20401;-73
2021/05/24 08:15:19;;;;;;;0.90;0.40;;;;;;;19.95;52.18;100607.75;5049624;28;20586;-73
2021/05/24 08:17:45;;;;;;;2.10;0.70;;;;;;;19.89;53.21;100603.16;5050568;28;20063;-73
2021/05/24 08:20:12;;;;;;;2.15;0.52;;;;;;;20.37;53.02;100600.69;5043932;28;20119;-73
2021/05/24 08:22:38;;;;;;;2.05;0.70;;;;;;;20.35;54.57;100601.09;5049451;28;20029;-73
2021/05/24 08:25:07;;;;;;;3.22;0.50;;;;;;;20.07;54.05;100587.19;5049244;28;20025;-73
2021/05/24 08:27:32;;;;;;;1.95;0.65;;;;;;;20.61;51.94;100585.72;5034458;28;20596;-74
2021/05/24 08:29:58;;;;;;;1.98;0.80;;;;;;;20.17;52.39;100586.22;5035026;28;20108;-73
2021/05/24 08:32:23;;;;;;;1.23;0.60;;;;;;;20.81;51.62;100586.41;5045016;28;20056;-73
2021/05/24 08:34:49;;;;;;;0.88;0.50;;;;;;;20.78;51.04;100578.28;5048652;28;20071;-71
2021/05/24 08:37:14;;;;;;;2.45;0.60;;;;;;;20.57;51.45;100574.06;5039246;28;20467;-72
2021/05/24 08:39:42;;;;;;;1.95;0.65;;;;;;;20.54;50.61;100591.31;5046087;28;20457;-72
2021/05/24 08:42:07;;;;;;;1.52;0.50;;;;;;;20.52;51.15;100580.81;5040023;28;20033;-73
2021/05/24 08:44:34;;;;;;;1.58;0.50;;;;;;;20.74;50.97;100575.63;5035153;28;20554;-73
2021/05/24 08:47:01;;;;;;;1.27;0.70;;;;;;;21.12;50.76;100571.25;5045602;28;20029;-72
2021/05/24 08:49:26;;;;;;;2.78;0.50;;;;;;;21.85;50.89;100558.81;5043924;28;20033;-72
2021/05/24 08:51:52;;;;;;;1.70;0.50;;;;;;;21.60;48.66;100564.97;5032239;28;20409;-72
2021/05/24 08:54:18;;;;;;;2.90;0.50;;;;;;;21.27;49.49;100566.94;5042354;28;20032;-72
2021/05/24 08:56:44;;;;;;;2.15;0.75;;;;;;;21.85;48.90;100556.84;5065782;22;20072;-75
2021/05/24 08:59:09;;;;;;;0.90;0.45;;;;;;;22.07;47.87;100559.75;5066719;28;20125;-74
2021/05/24 09:01:35;;;;;;;2.53;0.68;;;;;;;21.61;49.39;100557.47;5065552;28;20442;-75
2021/05/24 09:04:05;;;;;;;1.60;0.40;;;;;;;21.89;48.54;100556.75;5069418;28;20046;-74
2021/05/24 09:06:45;;;;;;;1.03;0.57;;;;;;;22.00;47.95;100551.75;5065903;28;20090;-75
2021/05/24 09:09:12;;;;;;;0.95;0.70;;;;;;;22.30;48.12;100557.50;5068430;28;20036;-74
2021/05/24 09:11:38;;;;;;;1.42;0.52;;;;;;;22.27;47.46;100557.63;5073010;28;20024;-75
2021/05/24 09:14:12;;;;;;;1.88;0.40;;;;;;;22.82;46.29;100546.13;5072901;28;20552;-74
2021/05/24 09:16:38;;;;;;;2.35;0.30;;;;;;;22.68;46.30;100552.09;5073787;28;20044;-74
2021/05/24 09:19:21;;;;;;;1.85;0.65;;;;;;;21.92;47.48;100551.16;5071083;28;20046;-74
2021/05/24 09:22:00;;;;;;;2.65;0.77;;;;;;;22.51;46.34;100545.16;5051557;28;20413;-74
2021/05/24 09:24:36;;;;;;;1.23;0.60;;;;;;;22.40;46.66;100541.94;5070436;28;20301;-74
2021/05/24 09:27:03;;;;;;;3.33;0.50;;;;;;;23.15;46.00;100536.41;5069462;28;20042;-75
2021/05/24 09:29:44;;;;;;;1.65;0.35;;;;;;;23.14;44.49;100532.16;5059267;28;20028;-74
2021/05/24 09:32:31;;;;;;;4.20;0.95;;;;;;;22.56;46.48;100525.38;5062510;28;20107;-72
2021/05/24 09:35:02;;;;;;;2.65;0.40;;;;;;;22.85;44.42;100517.81;5066649;28;20717;-72
2021/05/24 09:37:40;;;;;;;;;;;;;;;22.09;45.76;100521.69;5063895;28;20055;-72
2021/05/24 09:40:21;;;;;;;1.67;0.50;;;;;;;22.33;47.01;100526.47;5067584;28;19931;-73
2021/05/24 09:42:47;;;;;;;2.25;0.55;;;;;;;22.63;45.61;100514.19;5059144;28;20036;-72
2021/05/24 09:45:21;;;;;;;2.20;0.40;;;;;;;22.72;45.14;100516.28;5084077;28;20033;-72
2021/05/24 09:47:48;;;;;;;0.98;0.40;;;;;;;22.86;45.12;100513.81;5058267;28;20036;-72
2021/05/24 09:50:21;;;;;;;2.75;0.40;;;;;;;23.10;45.22;100508.72;5069563;28;20020;-73
2021/05/24 09:52:47;;;;;;;1.15;0.50;;;;;;;22.96;46.47;100515.47;5064401;28;20542;-72
2021/05/24 09:55:16;;;;;;;1.30;0.50;;;;;;;22.74;45.87;100500.91;5055895;28;20033;-73
2021/05/24 09:57:54;;;;;;;1.60;0.50;;;;;;;21.45;46.68;100493.28;5061845;28;20031;-73
2021/05/24 10:00:28;;;;;;;1.80;0.40;;;;;;;21.82;45.30;100491.13;5064693;28;20048;-72
2021/05/24 10:02:55;;;;;;;2.00;0.40;;;;;;;22.79;45.54;100489.34;5053179;28;20024;-74
2021/05/24 10:05:21;;;;;;;1.73;0.40;;;;;;;21.91;44.38;100492.00;5052574;28;20041;-72
2021/05/24 10:07:47;;;;;;;4.15;0.50;;;;;;;22.52;43.36;100477.25;5058661;28;20048;-73
2021/05/24 10:10:13;;;;;;;0.95;0.30;;;;;;;23.11;44.00;100480.06;5061454;28;20111;-73
2021/05/24 10:12:39;;;;;;;1.60;0.30;;;;;;;22.22;42.74;100487.56;5067981;28;20036;-73
2021/05/24 10:15:07;;;;;;;1.90;0.30;;;;;;;22.45;43.12;100472.78;5060371;28;20614;-72
2021/05/24 10:17:33;;;;;;;0.88;0.30;;;;;;;21.96;42.69;100485.22;5062194;28;20020;-73
2021/05/24 10:19:59;;;;;;;2.55;0.40;;;;;;;21.82;43.68;100463.69;5070523;28;20032;-73
2021/05/24 10:22:24;;;;;;;1.55;0.40;;;;;;;21.07;44.66;100472.38;5071520;28;20115;-73
2021/05/24 10:24:52;;;;;;;1.27;0.47;;;;;;;21.32;45.00;100464.28;5060119;28;20036;-73
2021/05/24 10:27:18;;;;;;;2.50;0.40;;;;;;;21.72;43.43;100464.75;5068930;28;20028;-73
2021/05/24 10:29:43;;;;;;;2.30;0.45;;;;;;;22.42;43.29;100462.66;5064219;28;20025;-73
2021/05/24 10:32:09;;;;;;;1.85;0.20;;;;;;;22.49;42.02;100467.94;5062121;28;20052;-73
2021/05/24 10:34:39;;;;;;;1.63;0.20;;;;;;;22.83;41.64;100453.50;5055857;28;20451;-73
2021/05/24 10:37:09;;;;;;;2.05;0.30;;;;;;;22.94;40.87;100451.19;5060241;28;20028;-73
2021/05/24 10:39:48;;;;;;;2.78;0.40;;;;;;;23.17;40.98;100448.78;5049665;28;20432;-72
2021/05/24 10:42:14;;;;;;;1.55;0.40;;;;;;;23.70;41.32;100446.94;5065035;28;20036;-73
2021/05/24 10:44:47;;;;;;;0.93;0.40;;;;;;;23.57;40.20;100454.50;5067029;28;20029;-73
2021/05/24 10:47:27;;;;;;;2.08;0.20;;;;;;;22.45;41.87;100457.03;5059624;28;20025;-72
2021/05/24 10:50:06;;;;;;;0.93;0.43;;;;;;;22.66;41.71;100463.88;5061513;28;20028;-73
2021/05/24 10:52:36;;;;;;;1.63;0.28;;;;;;;22.28;42.00;100461.13;5056256;28;20045;-73
2021/05/24 10:55:24;;;;;;;2.97;0.70;;;;;;;22.09;42.41;100453.88;5052480;28;20201;-73
2021/05/24 10:57:59;;;;;;;0.85;0.30;;;;;;;21.88;43.21;100434.53;5068933;28;20021;-73
2021/05/24 11:00:26;;;;;;;3.10;0.40;;;;;;;21.73;43.37;100441.59;5049427;28;20341;-73
2021/05/24 11:02:54;;;;;;;1.55;0.30;;;;;;;21.60;43.98;100436.09;5062646;28;20492;-72
2021/05/24 11:05:25;;;;;;;1.20;0.40;;;;;;;21.98;42.71;100427.97;5064571;28;20040;-73
2021/05/24 11:07:53;;;;;;;1.02;0.32;;;;;;;22.54;42.06;100431.69;5057561;28;20033;-73
2021/05/24 11:10:24;;;;;;;0.52;0.38;;;;;;;22.26;41.93;100427.09;5070081;28;20473;-73
2021/05/24 11:12:52;;;;;;;2.20;0.43;;;;;;;22.42;42.51;100421.47;5058828;28;20501;-72
2021/05/24 11:15:21;;;;;;;0.93;0.40;;;;;;;21.79;42.17;100415.19;5063627;28;20042;-72
2021/05/24 11:17:59;;;;;;;0.63;0.30;;;;;;;21.49;42.01;100398.03;5056729;28;20028;-73
2021/05/24 11:20:55;;;;;;;0.95;0.20;;;;;;;22.13;41.92;100401.63;5069791;28;20552;-72
2021/05/24 11:26:12;;;;;;;3.00;0.40;;;;;;;22.10;42.11;100403.28;5055008;28;20500;-73
2021/05/24 11:28:54;;;;;;;2.13;0.50;;;;;;;22.34;41.72;100392.72;5055562;28;20029;-73